Terminal Aerodrome Forecast
Issued by NWS

Home | Current Version | Previous Version | Text Only | Print | Product List | Glossary On
Versions: 1 2 3 4 5 6 7 8 9 10 11 12 13 14 15 16 17 18 19 20 21 22 23
000
FTUS41 KGYX 241120
TAFRKD
TAF
KRKD 241120Z 2412/2512 29008KT P6SM OVC003
     FM241700 31013KT P6SM FEW250
     FM250200 35011KT P6SM SKC
     FM250600 03012G20KT P6SM SKC
     FM251100 07012KT P6SM BKN200
      AMD LTD TO CLD VIS AND WIND=

USA.gov is the U.S. government's official web portal to all federal, state and local government web resources and services.